createdAt,value
2022-11-15T00:00:07.613Z,81.6
2022-11-15T00:03:24.144Z,81.7
2022-11-15T00:06:13.508Z,81.8
2022-11-15T00:09:00.908Z,81.7
2022-11-15T00:11:49.323Z,81.9
2022-11-15T00:14:37.655Z,81.8
2022-11-15T00:17:24.933Z,81.9
2022-11-15T00:20:12.311Z,81.9
2022-11-15T00:22:59.750Z,82.1
2022-11-15T00:25:49.697Z,82.2
2022-11-15T00:28:42.688Z,82.1
2022-11-15T00:31:31.156Z,82.1
2022-11-15T00:34:18.394Z,82.1
2022-11-15T00:37:05.752Z,82.1
2022-11-15T00:39:53.339Z,81.9
2022-11-15T00:42:40.784Z,82
2022-11-15T00:45:28.261Z,82.2
2022-11-15T00:48:15.588Z,82.3
2022-11-15T00:51:02.952Z,82.1
2022-11-15T00:53:50.475Z,82.1
2022-11-15T00:56:37.792Z,82.3
2022-11-15T00:59:25.236Z,82.2
2022-11-15T01:02:12.489Z,82.2
2022-11-15T01:04:59.982Z,82.2
2022-11-15T01:07:47.347Z,82.1
2022-11-15T01:10:38.432Z,82.2
2022-11-15T01:13:25.961Z,82.1
2022-11-15T01:16:16.664Z,82.2
2022-11-15T01:19:04.721Z,82.3
2022-11-15T01:21:52.092Z,82.2
2022-11-15T01:24:39.372Z,82.5
2022-11-15T01:27:26.829Z,82.2
2022-11-15T01:30:14.131Z,82.1
2022-11-15T01:33:02.065Z,82.4
2022-11-15T01:35:49.383Z,81.9
2022-11-15T01:38:36.822Z,82.1
2022-11-15T01:41:24.153Z,82.2
2022-11-15T01:44:13.786Z,82
2022-11-15T01:47:33.632Z,82
2022-11-15T01:50:25.205Z,82.2
2022-11-15T01:53:17.360Z,82.4
2022-11-15T01:56:07.688Z,82.1
2022-11-15T01:58:59.880Z,82.1
2022-11-15T02:01:51.288Z,82.1
2022-11-15T02:04:39.084Z,82.1
2022-11-15T02:07:29.352Z,82.2
2022-11-15T02:10:18.379Z,82
2022-11-15T02:13:08.243Z,82.3
2022-11-15T02:15:59.087Z,82.3
2022-11-15T02:18:59.593Z,82.4
2022-11-15T02:22:08.380Z,82.6
2022-11-15T02:25:13.260Z,82.4
2022-11-15T02:28:23.651Z,81.8
2022-11-15T02:31:33.683Z,81.8
2022-11-15T02:34:31.945Z,82
2022-11-15T02:37:29.112Z,82
2022-11-15T02:40:25.071Z,81.7
2022-11-15T02:43:21.710Z,81.7
2022-11-15T02:46:45.797Z,81.7
2022-11-15T02:50:10.617Z,81.7
2022-11-15T02:53:01.976Z,81.6
2022-11-15T02:55:49.437Z,81.8
2022-11-15T02:58:39.246Z,82
2022-11-15T03:01:42.394Z,82.1
2022-11-15T03:04:39.975Z,82.1
2022-11-15T03:07:34.452Z,81.9
2022-11-15T03:10:28.826Z,81.8
2022-11-15T03:13:26.422Z,81.6
2022-11-15T03:16:21.486Z,81.9
2022-11-15T03:19:15.415Z,81.4
2022-11-15T03:22:10.030Z,81.7
2022-11-15T03:25:02.407Z,81.7
2022-11-15T03:27:54.616Z,81.7
2022-11-15T03:30:48.645Z,81.7
2022-11-15T03:33:38.384Z,81.7
2022-11-15T03:36:26.760Z,81.8
2022-11-15T03:39:20.567Z,81.8
2022-11-15T03:42:09.440Z,81.8
2022-11-15T03:45:08.599Z,81.6
2022-11-15T03:48:03.264Z,81.5
2022-11-15T03:50:59.360Z,81.6
2022-11-15T03:53:47.580Z,81.4
2022-11-15T03:56:34.901Z,81.5
2022-11-15T03:59:22.197Z,81.7
2022-11-15T04:02:09.631Z,81.3
2022-11-15T04:04:58.418Z,81.3
2022-11-15T04:07:46.007Z,81.2
2022-11-15T04:10:33.647Z,81.3
2022-11-15T04:13:21.084Z,81.4
2022-11-15T04:16:08.518Z,81.1
2022-11-15T04:18:55.909Z,81.2
2022-11-15T04:22:15.090Z,81.1
2022-11-15T04:25:34.099Z,81.3
2022-11-15T04:28:21.501Z,80.9
2022-11-15T04:31:09.217Z,80.8
2022-11-15T04:33:56.565Z,80.9
2022-11-15T04:36:44.173Z,81.2
2022-11-15T04:40:04.068Z,81.2
2022-11-15T04:42:53.486Z,81.7
2022-11-15T04:45:41.225Z,81.4
2022-11-15T04:48:28.692Z,81.4
2022-11-15T04:51:16.494Z,81.5
2022-11-15T04:54:04.194Z,81.7
2022-11-15T04:56:51.908Z,81.7
2022-11-15T04:59:39.123Z,81.8
2022-11-15T05:02:26.563Z,81.2
2022-11-15T05:07:04.493Z,81.2
2022-11-15T05:09:52.092Z,81.2
2022-11-15T05:12:39.403Z,81.4
2022-11-15T05:15:28.061Z,81.4
2022-11-15T05:18:19.417Z,81.5
2022-11-15T05:21:09.637Z,81.3
2022-11-15T05:24:00.613Z,81.4
2022-11-15T05:26:49.087Z,81.1
2022-11-15T05:29:36.395Z,81.2
2022-11-15T05:32:23.665Z,81.1
2022-11-15T05:35:11.096Z,81.2
2022-11-15T05:38:04.879Z,81
2022-11-15T05:40:52.261Z,81.4
2022-11-15T05:43:40.279Z,81.6
2022-11-15T05:46:29.470Z,81.3
2022-11-15T05:49:16.813Z,81.4
2022-11-15T05:52:07.796Z,81.4
2022-11-15T05:55:00.746Z,80.9
2022-11-15T05:57:51.156Z,81.2
2022-11-15T06:00:38.674Z,81.3
2022-11-15T06:03:28.962Z,81.4
2022-11-15T06:06:16.677Z,81.6
2022-11-15T06:09:03.968Z,81.5
2022-11-15T06:11:51.311Z,81.1
2022-11-15T06:14:38.740Z,81.1
2022-11-15T06:17:26.183Z,81.2
2022-11-15T06:20:13.435Z,81.2
2022-11-15T06:23:01.184Z,81.3
2022-11-15T06:25:50.369Z,81.2
2022-11-15T06:28:37.686Z,81.4
2022-11-15T06:31:25.011Z,81.5
2022-11-15T06:34:12.381Z,81.3
2022-11-15T06:36:59.662Z,81.6
2022-11-15T06:39:47.098Z,82
2022-11-15T06:42:34.517Z,81.9
2022-11-15T06:45:22.071Z,81.5
2022-11-15T06:48:09.403Z,81.3
2022-11-15T06:50:56.982Z,81.5
2022-11-15T06:53:46.083Z,81.5
2022-11-15T06:56:33.395Z,81.2
2022-11-15T06:59:20.733Z,81.3
2022-11-15T07:02:07.953Z,81.5
2022-11-15T07:04:59.062Z,81.6
2022-11-15T07:07:46.618Z,81.6
2022-11-15T07:10:38.702Z,82.1
2022-11-15T07:13:25.995Z,81.7
2022-11-15T07:16:14.783Z,81.4
2022-11-15T07:19:02.044Z,81.3
2022-11-15T07:21:49.516Z,81.5
2022-11-15T07:24:36.960Z,81.5
2022-11-15T07:27:24.327Z,81.6
2022-11-15T07:30:14.497Z,81.4
2022-11-15T07:33:02.918Z,81.2
2022-11-15T07:35:50.217Z,81.2
2022-11-15T07:38:42.601Z,81.5
2022-11-15T07:41:31.812Z,81.7
2022-11-15T07:44:19.135Z,81.3
2022-11-15T07:47:06.566Z,81.3
2022-11-15T07:49:53.915Z,81.4
2022-11-15T07:52:41.314Z,81.6
2022-11-15T07:55:29.042Z,81.3
2022-11-15T07:58:16.473Z,81.5
2022-11-15T08:01:03.933Z,81.4
2022-11-15T08:03:52.541Z,81.2
2022-11-15T08:06:39.746Z,80.8
2022-11-15T08:09:27.199Z,80.7
2022-11-15T08:12:14.489Z,80.4
2022-11-15T08:15:01.934Z,80.4
2022-11-15T08:17:49.910Z,80.3
2022-11-15T08:20:40.593Z,80
2022-11-15T08:23:29.684Z,80.1
2022-11-15T08:26:17.497Z,80.1
2022-11-15T08:29:04.821Z,80.2
2022-11-15T08:31:53.064Z,80.2
2022-11-15T08:34:41.495Z,80.3
2022-11-15T08:37:29.111Z,80.3
2022-11-15T08:40:16.385Z,80.3
2022-11-15T08:43:04.344Z,80.7
2022-11-15T08:45:52.189Z,80.7
2022-11-15T08:48:42.336Z,79.7
2022-11-15T08:51:30.403Z,79.9
2022-11-15T08:54:17.737Z,80.2
2022-11-15T08:57:05.204Z,80.3
2022-11-15T08:59:53.309Z,79.6
2022-11-15T09:02:40.600Z,79.7
2022-11-15T09:05:28.055Z,79.8
2022-11-15T09:08:40.895Z,80
2022-11-15T09:11:34.230Z,79.5
2022-11-15T09:14:21.608Z,79.7
2022-11-15T09:17:09.040Z,79.6
2022-11-15T09:19:56.385Z,79.6
2022-11-15T09:22:44.416Z,79.9
2022-11-15T09:25:32.632Z,80.1
2022-11-15T09:28:19.914Z,79.4
2022-11-15T09:31:07.302Z,80
2022-11-15T09:33:55.361Z,80
2022-11-15T09:36:42.718Z,79.7
2022-11-15T09:39:30.977Z,79.1
2022-11-15T09:42:18.435Z,79.4
2022-11-15T09:45:21.024Z,78.8
2022-11-15T09:48:13.895Z,78.9
2022-11-15T09:51:18.188Z,79.1
2022-11-15T09:54:46.057Z,79
2022-11-15T09:57:39.773Z,78.7
2022-11-15T10:00:46.327Z,79.1
2022-11-15T10:03:38.462Z,78.7
2022-11-15T10:06:27.676Z,78.2
2022-11-15T10:09:19.962Z,78.1
2022-11-15T10:12:15.086Z,78.2
2022-11-15T10:15:03.839Z,78.1
2022-11-15T10:17:57.850Z,78
2022-11-15T10:21:05.158Z,78.3
2022-11-15T10:24:02.887Z,78.3
2022-11-15T10:26:56.952Z,78.6
2022-11-15T10:29:44.538Z,78.4
2022-11-15T10:32:34.407Z,78.1
2022-11-15T10:35:22.688Z,78
2022-11-15T10:38:11.959Z,78.5
2022-11-15T10:40:59.358Z,78.7
2022-11-15T10:43:53.920Z,78
2022-11-15T10:46:55.592Z,78.3
2022-11-15T10:50:08.119Z,78.1
2022-11-15T10:53:15.859Z,78.1
2022-11-15T10:56:08.834Z,78.2
2022-11-15T10:59:06.300Z,76.9
2022-11-15T11:02:02.682Z,77.1
2022-11-15T11:05:17.705Z,77.4
2022-11-15T11:08:13.590Z,77.9
2022-11-15T11:11:09.347Z,77.6
2022-11-15T11:13:56.679Z,78.2
2022-11-15T11:16:58.299Z,77.7
2022-11-15T11:19:51.993Z,77.4
2022-11-15T11:22:50.335Z,77.1
2022-11-15T11:25:48.590Z,77.2
2022-11-15T11:28:48.827Z,77
2022-11-15T11:31:48.105Z,76.9
2022-11-15T11:34:45.898Z,76.9
2022-11-15T11:37:44.675Z,77.2
2022-11-15T11:40:36.056Z,77.2
2022-11-15T11:43:29.529Z,77.3
2022-11-15T11:46:25.782Z,76.8
2022-11-15T11:49:31.952Z,76.7
2022-11-15T11:52:28.203Z,76.7
2022-11-15T11:55:20.766Z,76.9
2022-11-15T11:58:12.052Z,77.1
2022-11-15T12:01:05.410Z,77
2022-11-15T12:04:01.200Z,77.3
2022-11-15T12:06:55.949Z,77.4
2022-11-15T12:09:49.532Z,77
2022-11-15T12:12:44.837Z,76.7
2022-11-15T12:15:41.999Z,76.5
2022-11-15T12:18:37.149Z,76.1
2022-11-15T12:21:28.490Z,76.2
2022-11-15T12:24:24.170Z,75.9
2022-11-15T12:27:16.288Z,76.1
2022-11-15T12:30:09.900Z,76.2
2022-11-15T12:33:01.491Z,76.5
2022-11-15T12:35:49.476Z,76.3
2022-11-15T12:38:46.160Z,76.5
2022-11-15T12:41:40.929Z,76.4
2022-11-15T12:44:29.905Z,76.4
2022-11-15T12:48:09.525Z,76.8
2022-11-15T12:52:30.540Z,76.6
2022-11-15T12:55:17.897Z,77
2022-11-15T12:58:18.860Z,77.1
2022-11-15T13:01:14.846Z,77.3
2022-11-15T13:04:44.456Z,77.1
2022-11-15T13:07:33.811Z,76.7
2022-11-15T13:10:53.487Z,76.8
2022-11-15T13:13:40.825Z,77.1
2022-11-15T13:16:31.308Z,76.9
2022-11-15T13:19:20.188Z,77.1
2022-11-15T13:22:10.675Z,77.2
2022-11-15T13:26:02.185Z,77.2
2022-11-15T13:28:58.022Z,77.2
2022-11-15T13:31:46.503Z,77.2
2022-11-15T13:37:38.352Z,77.4
2022-11-15T13:40:26.917Z,77.5
2022-11-15T13:43:19.994Z,77.6
2022-11-15T13:46:15.537Z,77.7
2022-11-15T13:49:04.729Z,77.7
2022-11-15T13:51:56.894Z,77.9
2022-11-15T13:54:46.663Z,78
2022-11-15T13:57:42.384Z,77.7
2022-11-15T14:00:33.051Z,78
2022-11-15T14:03:24.572Z,77.9
2022-11-15T14:06:14.669Z,77.8
2022-11-15T14:09:05.639Z,77.9
2022-11-15T14:12:26.317Z,78.1
2022-11-15T14:15:17.386Z,78.2
2022-11-15T14:18:13.546Z,78.4
2022-11-15T14:21:28.658Z,78.5
2022-11-15T14:24:16.516Z,78.4
2022-11-15T14:27:05.916Z,78.5
2022-11-15T14:30:11.416Z,78.6
2022-11-15T14:33:01.300Z,78.7
2022-11-15T14:36:05.105Z,79
2022-11-15T14:38:58.538Z,79.3
2022-11-15T14:41:46.824Z,79.6
2022-11-15T14:44:34.146Z,79.5
2022-11-15T14:47:21.563Z,79.8
2022-11-15T14:50:08.983Z,79.7
2022-11-15T14:52:59.000Z,79.7
2022-11-15T14:55:47.327Z,79.6
2022-11-15T14:58:35.560Z,79.5
2022-11-15T15:01:23.147Z,79.4
2022-11-15T15:04:12.167Z,79.6
2022-11-15T15:06:59.638Z,79.6
2022-11-15T15:09:47.176Z,79.9
2022-11-15T15:12:34.738Z,80.1
2022-11-15T15:15:22.571Z,80
2022-11-15T15:18:12.557Z,80
2022-11-15T15:21:01.356Z,79.9
2022-11-15T15:23:52.587Z,79.5
2022-11-15T15:26:40.565Z,79.6
2022-11-15T15:29:29.132Z,79.9
2022-11-15T15:32:16.484Z,79.8
2022-11-15T15:35:03.815Z,80.1
2022-11-15T15:37:51.673Z,79.9
2022-11-15T15:40:39.405Z,80.7
2022-11-15T15:43:26.811Z,80.9
2022-11-15T15:46:14.146Z,80.9
2022-11-15T15:49:03.200Z,80.5
2022-11-15T15:51:50.424Z,80.6
2022-11-15T15:54:38.000Z,80.9
2022-11-15T15:57:25.888Z,81.1
2022-11-15T16:00:13.287Z,81
2022-11-15T16:03:01.625Z,81.1
2022-11-15T16:05:49.601Z,81.1
2022-11-15T16:08:53.490Z,81
2022-11-15T16:11:49.037Z,81.3
2022-11-15T16:14:36.323Z,81.5
2022-11-15T16:17:24.402Z,81.8
2022-11-15T16:20:14.392Z,81.8
2022-11-15T16:23:21.218Z,81.9
2022-11-15T16:26:09.985Z,81.8
2022-11-15T16:29:05.926Z,81.7
2022-11-15T16:31:54.874Z,81.8
2022-11-15T16:34:46.140Z,81.9
2022-11-15T16:37:36.002Z,81.9
2022-11-15T16:40:25.450Z,81.7
2022-11-15T16:43:15.480Z,81.6
2022-11-15T16:46:02.927Z,81.7
2022-11-15T16:48:58.592Z,81.9
2022-11-15T16:51:46.412Z,82.1
2022-11-15T16:54:35.947Z,81.7
2022-11-15T16:57:23.288Z,81.9
2022-11-15T17:00:10.692Z,81.9
2022-11-15T17:03:01.407Z,82
2022-11-15T17:05:49.349Z,82
2022-11-15T17:08:37.016Z,82.1
2022-11-15T17:11:24.340Z,82.1
2022-11-15T17:14:11.767Z,82.1
2022-11-15T17:17:00.997Z,82
2022-11-15T17:19:50.115Z,82.1
2022-11-15T17:22:37.889Z,82
2022-11-15T17:25:25.299Z,82
2022-11-15T17:28:12.542Z,82.1
2022-11-15T17:30:59.931Z,82
2022-11-15T17:33:47.236Z,81.8
2022-11-15T17:36:34.548Z,81.9
2022-11-15T17:39:21.858Z,81.8
2022-11-15T17:42:09.684Z,81.6
2022-11-15T17:44:57.034Z,81.8
2022-11-15T17:47:44.776Z,81.6
2022-11-15T17:50:33.084Z,81.7
2022-11-15T17:53:20.396Z,81.7
2022-11-15T17:56:07.875Z,81.7
2022-11-15T17:58:57.068Z,81.7
2022-11-15T18:01:46.080Z,81.6
2022-11-15T18:04:35.314Z,81.7
2022-11-15T18:07:22.668Z,81.6
2022-11-15T18:10:10.186Z,81.6
2022-11-15T18:12:57.497Z,81.6
2022-11-15T18:15:45.144Z,81.6
2022-11-15T18:18:39.888Z,81.5
2022-11-15T18:21:28.207Z,81.5
2022-11-15T18:24:18.542Z,81.5
2022-11-15T18:27:06.760Z,81.5
2022-11-15T18:29:54.721Z,81.4
2022-11-15T18:32:42.022Z,81.3
2022-11-15T18:35:29.495Z,81.4
2022-11-15T18:38:16.876Z,81.4
2022-11-15T18:41:04.186Z,81.5
2022-11-15T18:43:53.449Z,81.4
2022-11-15T18:46:41.633Z,81.5
2022-11-15T18:49:29.923Z,81.5
2022-11-15T18:52:17.383Z,81.6
2022-11-15T18:55:05.480Z,81.6
2022-11-15T18:57:53.899Z,81.7
2022-11-15T19:00:42.129Z,81.6
2022-11-15T19:03:29.749Z,81.5
2022-11-15T19:06:17.829Z,81.7
2022-11-15T19:09:07.392Z,81.8
2022-11-15T19:11:56.557Z,81.4
2022-11-15T19:14:44.155Z,81.4
2022-11-15T19:17:32.475Z,81.5
2022-11-15T19:20:19.716Z,81.5
2022-11-15T19:23:07.772Z,81.6
2022-11-15T19:25:55.140Z,81.7
2022-11-15T19:28:44.164Z,81.7
2022-11-15T19:31:36.128Z,81.7
2022-11-15T19:34:23.724Z,81.9
2022-11-15T19:37:11.025Z,81.6
2022-11-15T19:39:58.571Z,81.8
2022-11-15T19:42:46.141Z,81.7
2022-11-15T19:45:33.979Z,81.8
2022-11-15T19:48:21.388Z,81.7
2022-11-15T19:51:08.886Z,81.8
2022-11-15T19:53:58.631Z,81.8
2022-11-15T19:56:51.042Z,81.8
2022-11-15T19:59:38.394Z,81.8
2022-11-15T20:02:25.911Z,81.8
2022-11-15T20:05:18.296Z,81.8
2022-11-15T20:08:06.005Z,81.8
2022-11-15T20:10:53.389Z,81.6
2022-11-15T20:13:40.818Z,81.5
2022-11-15T20:16:28.574Z,81.5
2022-11-15T20:19:16.076Z,81.5
2022-11-15T20:22:03.372Z,81.5
2022-11-15T20:24:51.037Z,81.4
2022-11-15T20:27:38.394Z,81.2
2022-11-15T20:30:25.743Z,81.4
2022-11-15T20:33:13.004Z,81.2
2022-11-15T20:36:01.682Z,81.3
2022-11-15T20:38:50.134Z,81.3
2022-11-15T20:41:42.947Z,81.3
2022-11-15T20:44:31.076Z,81.2
2022-11-15T20:47:18.502Z,81.2
2022-11-15T20:50:35.349Z,81.2
2022-11-15T20:53:31.788Z,81.4
2022-11-15T20:56:19.720Z,81.4
2022-11-15T20:59:07.725Z,81.4
2022-11-15T21:01:55.207Z,81.5
2022-11-15T21:04:42.671Z,81.5
2022-11-15T21:07:30.715Z,81.4
2022-11-15T21:10:18.188Z,81.4
2022-11-15T21:13:37.319Z,81.2
2022-11-15T21:16:24.787Z,81.3
2022-11-15T21:19:12.173Z,81.3
2022-11-15T21:21:59.735Z,81.2
2022-11-15T21:24:48.515Z,81.2
2022-11-15T21:27:36.296Z,81.1
2022-11-15T21:30:23.844Z,80.9
2022-11-15T21:33:11.316Z,81.1
2022-11-15T21:35:58.686Z,81.1
2022-11-15T21:38:46.383Z,81
2022-11-15T21:41:34.113Z,81.2
2022-11-15T21:44:21.436Z,81.1
2022-11-15T21:47:08.659Z,81.1
2022-11-15T21:49:56.019Z,81.1
2022-11-15T21:52:43.220Z,81.1
2022-11-15T21:55:31.655Z,81.1
2022-11-15T21:58:18.977Z,81.2
2022-11-15T22:01:07.655Z,81.1
2022-11-15T22:04:28.857Z,81.2
2022-11-15T22:07:16.361Z,81.1
2022-11-15T22:10:04.434Z,81.2
2022-11-15T22:12:53.532Z,81.2
2022-11-15T22:15:41.402Z,81.1
2022-11-15T22:18:31.066Z,81.1
2022-11-15T22:21:18.951Z,81.2
2022-11-15T22:24:06.989Z,81.2
2022-11-15T22:26:54.691Z,81.2
2022-11-15T22:29:43.059Z,81
2022-11-15T22:32:31.701Z,81.3
2022-11-15T22:35:19.517Z,81.3
2022-11-15T22:38:07.287Z,81.2
2022-11-15T22:40:55.438Z,81
2022-11-15T22:43:44.395Z,81.1
2022-11-15T22:46:33.291Z,80.9
2022-11-15T22:49:20.997Z,80.8
2022-11-15T22:52:08.711Z,80.8
2022-11-15T22:54:57.949Z,80.8
2022-11-15T22:57:46.005Z,80.6
2022-11-15T23:00:34.479Z,80.5
2022-11-15T23:03:22.671Z,80.4
2022-11-15T23:06:11.718Z,80.5
2022-11-15T23:08:59.762Z,80.4
2022-11-15T23:11:47.558Z,80.4
2022-11-15T23:15:07.006Z,80.4
2022-11-15T23:17:55.416Z,80.5
2022-11-15T23:20:43.914Z,80.5
2022-11-15T23:23:32.949Z,80.6
2022-11-15T23:26:21.163Z,80.6
2022-11-15T23:29:08.971Z,80.5
2022-11-15T23:32:02.187Z,80.5
2022-11-15T23:35:22.343Z,80.4
2022-11-15T23:38:10.262Z,80.4
2022-11-15T23:40:58.090Z,80.5
2022-11-15T23:43:46.298Z,80.5
2022-11-15T23:46:34.065Z,80.5
2022-11-15T23:49:22.193Z,80.6
2022-11-15T23:52:09.960Z,80.6
2022-11-15T23:55:00.007Z,80.6
2022-11-15T23:57:48.319Z,80.9
